Time;durP1;ratioP1;P1;durP2;ratioP2;P2;SDS_P1;SDS_P2;PMS_P1;PMS_P2;Temp;Humidity;BMP_temperature;BMP_pressure;BME280_temperature;BME280_humidity;BME280_pressure;Samples;Min_cycle;Max_cycle;Signal;HPM_P1;HPM_P2
2021/07/27 00:00:59;;;;;;;19.74;9.51;;;;;;;;;;344937;152;857232;-60
2021/07/27 00:02:00;;;;;;;16.89;8.94;;;;;;;;;;351915;152;857346;-60
2021/07/27 00:03:02;;;;;;;16.57;8.66;;;;;;;;;;348108;153;857391;-60
2021/07/27 00:23:56;;;;;;;17.41;9.46;;;;;;;22.03;60.01;100207.26;374165;142;880491;-61
2021/07/27 00:24:58;;;;;;;15.94;9.29;;;;;;;21.98;59.85;100208.45;366332;144;859309;-60
2021/07/27 00:26:02;;;;;;;14.69;8.89;;;;;;;21.95;59.64;100209.44;366403;144;864944;-60
2021/07/27 00:27:04;;;;;;;14.41;9.16;;;;;;;21.94;59.73;100206.90;366309;144;861057;-61
2021/07/27 00:28:05;;;;;;;17.34;9.35;;;;;;;21.93;59.94;100213.10;366096;144;866654;-60
2021/07/27 00:29:07;;;;;;;12.77;8.94;;;;;;;21.95;59.97;100209.44;366110;147;864788;-60
2021/07/27 00:30:11;;;;;;;22.41;9.39;;;;;;;21.98;59.70;100211.08;366023;144;866039;-60
2021/07/27 00:31:17;;;;;;;12.16;8.88;;;;;;;22.00;59.57;100209.22;368529;144;859565;-60
2021/07/27 00:32:19;;;;;;;13.64;8.86;;;;;;;21.99;59.61;100208.34;365925;147;859373;-60
2021/07/27 00:33:20;;;;;;;14.82;10.03;;;;;;;21.96;59.64;100205.88;369003;144;857353;-60
2021/07/27 00:34:22;;;;;;;20.28;9.99;;;;;;;21.94;59.70;100205.10;368028;144;867334;-60
2021/07/27 00:35:25;;;;;;;15.11;8.97;;;;;;;21.94;59.71;100206.90;366695;144;865871;-60
2021/07/27 00:36:29;;;;;;;15.46;9.63;;;;;;;21.92;59.80;100201.69;366655;144;857366;-60
2021/07/27 00:37:32;;;;;;;15.51;9.39;;;;;;;21.90;59.63;100206.19;360179;147;857366;-60
2021/07/27 00:38:34;;;;;;;13.25;9.78;;;;;;;21.91;59.96;100209.69;366896;144;866260;-60
2021/07/27 00:39:36;;;;;;;17.69;9.63;;;;;;;21.88;60.03;100208.92;371418;144;857208;-60
2021/07/27 00:40:41;;;;;;;15.82;9.71;;;;;;;21.83;60.21;100208.30;367355;144;857371;-60
2021/07/27 00:41:43;;;;;;;17.51;9.80;;;;;;;21.83;60.21;100208.30;368608;144;860107;-60
2021/07/27 00:42:45;;;;;;;13.22;9.16;;;;;;;21.83;60.21;100208.30;362885;147;857898;-60
2021/07/27 00:43:47;;;;;;;20.86;9.44;;;;;;;21.68;60.35;100204.65;362264;147;865840;-59
2021/07/27 00:44:49;;;;;;;18.91;9.71;;;;;;;21.66;60.38;100198.60;363173;147;858896;-60
2021/07/27 00:45:51;;;;;;;11.72;8.84;;;;;;;21.64;60.45;100202.23;360044;146;865930;-62
2021/07/27 00:46:54;;;;;;;20.08;9.77;;;;;;;21.61;60.54;100203.22;359662;147;867126;-60
2021/07/27 00:47:56;;;;;;;15.52;8.80;;;;;;;21.57;60.68;100206.94;363872;147;858470;-61
2021/07/27 00:48:58;;;;;;;17.09;9.50;;;;;;;21.53;60.68;100210.66;362438;146;864873;-61
2021/07/27 00:50:00;;;;;;;17.34;9.11;;;;;;;21.50;60.88;100200.27;360108;147;864879;-60
2021/07/27 00:51:02;;;;;;;14.43;9.62;;;;;;;21.47;60.88;100210.95;362425;147;857499;-60
2021/07/27 00:52:04;;;;;;;11.86;9.18;;;;;;;21.44;61.06;100201.41;363223;147;866749;-60
2021/07/27 00:53:06;;;;;;;13.25;9.35;;;;;;;21.42;61.09;100201.50;362490;146;865831;-60
2021/07/27 00:54:08;;;;;;;16.04;9.94;;;;;;;21.41;61.10;100202.43;359771;147;857727;-60
2021/07/27 00:55:11;;;;;;;15.05;9.19;;;;;;;21.41;60.99;100202.43;364248;146;864995;-60
2021/07/27 00:56:14;;;;;;;13.65;9.25;;;;;;;21.42;61.00;100205.91;363558;146;857385;-60
2021/07/27 00:57:16;;;;;;;14.21;9.74;;;;;;;21.42;61.01;100203.27;365770;147;857265;-60
2021/07/27 00:58:18;;;;;;;12.35;9.18;;;;;;;21.40;60.96;100203.36;363970;147;866361;-60
2021/07/27 00:59:20;;;;;;;11.85;8.96;;;;;;;21.38;61.15;100199.95;361834;146;866804;-61
2021/07/27 01:00:23;;;;;;;16.53;9.69;;;;;;;21.40;61.16;100203.36;361956;147;866696;-60
2021/07/27 01:01:24;;;;;;;12.91;8.95;;;;;;;21.41;60.95;100198.93;361452;147;857343;-60
2021/07/27 01:02:27;;;;;;;12.50;8.33;;;;;;;21.38;60.90;100193.81;363398;146;857478;-60
2021/07/27 01:03:29;;;;;;;14.17;8.93;;;;;;;21.34;60.98;100194.89;361744;146;857537;-60
2021/07/27 01:04:31;;;;;;;14.45;9.35;;;;;;;21.31;61.10;100195.91;365684;147;857176;-60
2021/07/27 01:05:32;;;;;;;13.61;9.30;;;;;;;21.26;61.29;100197.91;362100;146;857576;-61
2021/07/27 01:06:34;;;;;;;14.92;9.07;;;;;;;21.22;61.27;100191.94;362157;146;865248;-60
2021/07/27 01:07:38;;;;;;;14.52;9.26;;;;;;;21.22;61.54;100194.56;362919;147;858706;-62
2021/07/27 01:08:40;;;;;;;15.73;9.18;;;;;;;21.21;61.42;100194.66;364632;147;866130;-61
2021/07/27 01:09:42;;;;;;;14.19;8.77;;;;;;;21.20;61.49;100193.79;363369;146;865012;-60
2021/07/27 01:10:46;;;;;;;14.37;9.82;;;;;;;21.19;61.51;100199.98;363131;147;857283;-60
2021/07/27 01:11:47;;;;;;;15.56;8.89;;;;;;;21.19;61.49;100189.45;361332;147;857367;-60
2021/07/27 01:12:49;;;;;;;16.28;9.69;;;;;;;21.23;61.47;100195.44;361670;147;866250;-60
2021/07/27 01:13:51;;;;;;;14.11;8.74;;;;;;;21.27;61.48;100195.20;361938;147;866617;-61
2021/07/27 01:14:53;;;;;;;14.55;9.33;;;;;;;21.32;61.35;100194.98;361199;147;865778;-61
2021/07/27 01:16:01;;;;;;;13.53;8.48;;;;;;;21.38;61.36;100196.45;362150;147;857305;-60
2021/07/27 01:16:59;;;;;;;16.88;9.20;;;;;;;21.41;61.10;100204.20;361658;146;857690;-60
2021/07/27 01:18:05;;;;;;;16.33;10.09;;;;;;;21.42;61.17;100198.00;365548;147;859030;-60
2021/07/27 01:20:26;;;;;;;14.83;9.39;;;;;;;21.48;61.15;100186.32;365405;147;865122;-60
2021/07/27 01:39:56;;;;;;;;;;;;;;;21.34;61.52;100187.86;362272;147;856692;-61
2021/07/27 01:42:03;;;;;;;14.56;9.58;;;;;;;21.37;61.64;100192.11;361143;148;857794;-60
2021/07/27 01:42:11;;;;;;;15.85;10.21;;;;;;;21.37;61.64;100192.11;356362;148;857416;-60
2021/07/27 01:43:17;;;;;;;18.37;10.20;;;;;;;21.40;61.52;100195.45;362247;148;866661;-60
2021/07/27 01:44:16;;;;;;;15.96;10.16;;;;;;;21.42;61.71;100190.97;359422;147;857246;-60
2021/07/27 01:45:18;;;;;;;15.32;10.39;;;;;;;21.42;61.49;100190.97;359353;147;864998;-60
2021/07/27 01:46:25;;;;;;;20.14;10.49;;;;;;;21.42;61.49;100190.97;357796;148;865090;-61
2021/07/27 01:47:26;;;;;;;19.30;10.42;;;;;;;21.44;61.07;100190.88;359657;147;858575;-60
2021/07/27 01:48:32;;;;;;;18.25;10.31;;;;;;;21.44;61.10;100183.84;357378;147;857385;-60
2021/07/27 01:49:34;;;;;;;17.16;9.96;;;;;;;21.48;61.32;100189.80;357908;148;865435;-60
2021/07/27 01:50:36;;;;;;;18.36;10.22;;;;;;;21.49;61.35;100186.23;358327;147;857653;-61
2021/07/27 01:51:42;;;;;;;14.60;8.68;;;;;;;;;;360310;147;860808;-61
2021/07/27 01:52:47;;;;;;;18.71;10.25;;;;;;;;;;356984;148;857512;-60
2021/07/27 01:53:52;;;;;;;13.62;10.15;;;;;;;;;;357338;147;857237;-60
2021/07/27 01:54:52;;;;;;;22.14;9.95;;;;;;;;;;359908;147;858902;-60
2021/07/27 01:55:54;;;;;;;13.59;10.28;;;;;;;;;;356849;148;857415;-60
2021/07/27 01:56:56;;;;;;;17.93;10.36;;;;;;;;;;357671;148;858604;-61
2021/07/27 01:57:58;;;;;;;13.51;9.53;;;;;;;;;;359805;147;865887;-60
2021/07/27 01:59:00;;;;;;;13.15;8.62;;;;;;;;;;360598;147;864856;-60
2021/07/27 02:00:04;;;;;;;18.31;9.29;;;;;;;;;;357519;148;857564;-60
2021/07/27 02:01:05;;;;;;;15.18;10.16;;;;;;;;;;357635;147;857346;-59
2021/07/27 02:02:07;;;;;;;13.67;9.89;;;;;;;;;;352345;150;858211;-60
2021/07/27 02:03:09;;;;;;;15.99;10.24;;;;;;;;;;347082;154;858151;-60
2021/07/27 02:04:10;;;;;;;14.71;9.00;;;;;;;;;;349503;152;864940;-59
2021/07/27 02:05:12;;;;;;;13.87;9.79;;;;;;;;;;348232;152;857270;-60
2021/07/27 02:06:15;;;;;;;18.55;9.85;;;;;;;;;;345769;153;857348;-60
2021/07/27 02:07:17;;;;;;;19.86;9.85;;;;;;;;;;345650;151;864949;-60
2021/07/27 02:08:18;;;;;;;19.54;10.49;;;;;;;;;;345867;152;857410;-60
2021/07/27 02:09:20;;;;;;;18.05;10.26;;;;;;;;;;352721;150;857548;-60
2021/07/27 02:10:24;;;;;;;14.38;9.51;;;;;;;;;;352841;151;866753;-60
2021/07/27 02:11:34;;;;;;;18.79;10.16;;;;;;;;;;352257;150;857351;-60
2021/07/27 02:12:36;;;;;;;21.47;11.04;;;;;;;;;;352164;151;857330;-59
2021/07/27 02:13:45;;;;;;;16.11;9.41;;;;;;;;;;349111;150;857128;-60
2021/07/27 02:15:59;;;;;;;;;;;;;;;;;;355170;151;856497;-60
2021/07/27 02:17:03;;;;;;;21.57;10.66;;;;;;;;;;353961;151;857303;-61
2021/07/27 02:18:05;;;;;;;23.16;10.38;;;;;;;;;;354975;151;857346;-61
2021/07/27 02:19:07;;;;;;;16.14;9.83;;;;;;;;;;352615;150;858721;-61
2021/07/27 02:20:09;;;;;;;17.73;10.31;;;;;;;;;;349761;150;857226;-61
2021/07/27 02:21:11;;;;;;;17.62;10.59;;;;;;;;;;350841;151;857301;-60
2021/07/27 02:22:13;;;;;;;15.73;9.98;;;;;;;;;;353254;151;860108;-61
2021/07/27 02:23:15;;;;;;;14.88;9.55;;;;;;;;;;351565;150;864739;-61
2021/07/27 02:24:17;;;;;;;16.83;10.74;;;;;;;;;;353046;150;858850;-61
2021/07/27 02:25:18;;;;;;;15.97;9.72;;;;;;;;;;360243;147;859817;-61
2021/07/27 02:26:21;;;;;;;18.29;10.27;;;;;;;;;;363715;147;859662;-61
2021/07/27 02:27:26;;;;;;;16.81;9.76;;;;;;;;;;361073;147;857311;-61
2021/07/27 02:28:28;;;;;;;14.81;10.18;;;;;;;;;;364636;147;857906;-61
2021/07/27 02:29:29;;;;;;;12.05;9.10;;;;;;;;;;363039;147;859357;-60
2021/07/27 02:30:33;;;;;;;12.79;9.91;;;;;;;;;;363551;147;859059;-59
2021/07/27 02:31:40;;;;;;;18.93;9.94;;;;;;;;;;363071;147;868111;-60
2021/07/27 02:32:38;;;;;;;17.02;11.02;;;;;;;;;;363944;147;857191;-61
2021/07/27 02:33:39;;;;;;;15.51;10.16;;;;;;;;;;364059;147;857285;-61
2021/07/27 02:34:41;;;;;;;14.05;9.72;;;;;;;;;;365947;147;859060;-60
2021/07/27 02:35:42;;;;;;;19.39;9.59;;;;;;;;;;362947;147;858046;-61
2021/07/27 02:36:44;;;;;;;19.95;9.74;;;;;;;;;;362989;147;859422;-61
2021/07/27 02:37:46;;;;;;;17.71;9.26;;;;;;;;;;362823;146;860467;-60
2021/07/27 02:38:47;;;;;;;20.81;9.50;;;;;;;;;;362997;147;859138;-59
2021/07/27 02:39:49;;;;;;;17.66;9.59;;;;;;;;;;361674;147;857163;-60
2021/07/27 02:40:52;;;;;;;18.81;9.94;;;;;;;;;;360543;146;864988;-60
2021/07/27 02:41:54;;;;;;;23.55;10.24;;;;;;;;;;361868;147;857456;-60
2021/07/27 02:43:01;;;;;;;17.36;9.51;;;;;;;;;;364782;147;857304;-60
2021/07/27 02:44:02;;;;;;;17.21;9.47;;;;;;;;;;363721;147;859369;-62
2021/07/27 02:45:05;;;;;;;18.63;9.89;;;;;;;;;;364495;147;858260;-60
2021/07/27 02:46:07;;;;;;;13.96;9.31;;;;;;;;;;363798;147;857720;-60
2021/07/27 02:47:08;;;;;;;18.46;9.51;;;;;;;;;;363211;147;858436;-60
2021/07/27 02:48:10;;;;;;;16.23;9.24;;;;;;;;;;360713;146;857359;-60
2021/07/27 02:49:11;;;;;;;16.31;9.40;;;;;;;;;;361717;147;864959;-59
2021/07/27 02:50:15;;;;;;;20.70;10.32;;;;;;;;;;363239;147;857202;-59
2021/07/27 02:51:16;;;;;;;15.92;9.33;;;;;;;;;;363168;146;858702;-61
2021/07/27 02:52:18;;;;;;;12.69;9.21;;;;;;;;;;363995;147;857446;-60
2021/07/27 02:53:19;;;;;;;15.52;9.58;;;;;;;;;;360734;147;857395;-60
2021/07/27 02:54:21;;;;;;;16.71;9.00;;;;;;;;;;362631;146;857346;-59
2021/07/27 02:55:22;;;;;;;18.78;9.14;;;;;;;;;;361141;146;857498;-60
2021/07/27 02:56:26;;;;;;;18.94;10.32;;;;;;;;;;360652;147;857359;-58
2021/07/27 02:57:27;;;;;;;19.19;9.42;;;;;;;;;;362724;146;857469;-60
2021/07/27 02:58:30;;;;;;;19.02;9.99;;;;;;;;;;363455;146;864863;-60
2021/07/27 02:59:31;;;;;;;16.85;10.01;;;;;;;;;;359599;147;857789;-60
2021/07/27 03:00:33;;;;;;;15.61;9.51;;;;;;;;;;362248;147;859778;-61
2021/07/27 03:01:35;;;;;;;14.77;9.81;;;;;;;;;;362300;146;858597;-61
2021/07/27 03:02:37;;;;;;;18.35;9.59;;;;;;;;;;361001;146;857187;-61
2021/07/27 03:03:38;;;;;;;17.22;9.89;;;;;;;;;;363305;147;857177;-59
2021/07/27 03:04:40;;;;;;;16.55;9.72;;;;;;;;;;363450;146;857318;-59
2021/07/27 03:05:42;;;;;;;15.74;9.54;;;;;;;;;;360316;146;857441;-62
2021/07/27 03:06:46;;;;;;;17.76;9.19;;;;;;;;;;364019;147;857898;-59
2021/07/27 03:07:49;;;;;;;15.96;9.63;;;;;;;;;;362228;147;858298;-60
2021/07/27 03:09:03;;;;;;;19.48;8.96;;;;;;;;;;362536;146;858481;-61
2021/07/27 03:11:14;;;;;;;18.36;9.36;;;;;;;;;;361274;147;857242;-59
2021/07/27 03:12:16;;;;;;;15.24;9.04;;;;;;;;;;363464;147;857581;-60
2021/07/27 03:13:18;;;;;;;15.16;9.84;;;;;;;;;;365348;147;865120;-59
2021/07/27 03:14:19;;;;;;;17.29;9.23;;;;;;;;;;363870;147;857855;-58
2021/07/27 03:15:21;;;;;;;14.84;9.24;;;;;;;;;;362751;147;857463;-59
2021/07/27 03:16:24;;;;;;;13.35;9.23;;;;;;;;;;359173;146;857458;-58
2021/07/27 03:17:26;;;;;;;17.15;9.22;;;;;;;;;;365436;147;865987;-60
2021/07/27 03:18:27;;;;;;;14.99;9.31;;;;;;;;;;363094;147;859196;-58
2021/07/27 03:19:29;;;;;;;13.63;9.16;;;;;;;;;;361199;146;859471;-58
2021/07/27 03:20:32;;;;;;;14.25;9.03;;;;;;;;;;365810;147;859614;-59
2021/07/27 03:21:34;;;;;;;16.85;9.50;;;;;;;;;;363531;147;857446;-59
2021/07/27 03:22:36;;;;;;;14.73;9.40;;;;;;;;;;363265;147;858109;-59
2021/07/27 03:23:37;;;;;;;13.69;9.09;;;;;;;;;;360553;146;859060;-59
2021/07/27 03:24:39;;;;;;;17.34;9.48;;;;;;;;;;359652;147;858682;-59
2021/07/27 03:25:40;;;;;;;15.59;9.61;;;;;;;;;;354788;149;857330;-59
2021/07/27 03:26:42;;;;;;;21.09;9.39;;;;;;;;;;357425;149;857839;-59
2021/07/27 03:27:44;;;;;;;14.95;9.55;;;;;;;;;;354988;150;857282;-60
2021/07/27 03:28:46;;;;;;;19.47;9.49;;;;;;;;;;356213;149;858483;-59
2021/07/27 03:29:47;;;;;;;14.84;9.91;;;;;;;;;;354549;149;858596;-60
2021/07/27 03:30:50;;;;;;;15.23;9.43;;;;;;;;;;355577;150;867382;-60
2021/07/27 03:31:51;;;;;;;14.64;8.99;;;;;;;;;;355717;150;857356;-60
2021/07/27 03:32:53;;;;;;;14.88;9.14;;;;;;;;;;356062;150;866749;-60
2021/07/27 03:33:54;;;;;;;14.29;9.37;;;;;;;;;;355219;149;857243;-62
2021/07/27 03:34:57;;;;;;;13.99;9.41;;;;;;;;;;358457;150;858839;-62
2021/07/27 03:35:58;;;;;;;18.49;9.06;;;;;;;;;;354626;150;858883;-60
2021/07/27 03:37:01;;;;;;;14.41;9.27;;;;;;;;;;355755;149;857327;-61
2021/07/27 03:38:05;;;;;;;21.46;9.11;;;;;;;;;;355503;150;857449;-60
2021/07/27 03:39:10;;;;;;;13.30;8.92;;;;;;;;;;356461;150;858290;-59
2021/07/27 03:40:13;;;;;;;16.56;9.07;;;;;;;;;;356397;150;857402;-59
2021/07/27 03:41:14;;;;;;;17.19;8.68;;;;;;;;;;357636;150;859148;-60
2021/07/27 03:42:16;;;;;;;13.11;8.81;;;;;;;;;;353287;150;858437;-60
2021/07/27 03:43:17;;;;;;;15.33;8.74;;;;;;;;;;357460;149;857413;-60
2021/07/27 03:44:19;;;;;;;20.64;9.49;;;;;;;;;;347629;152;857476;-60
2021/07/27 03:45:21;;;;;;;17.87;8.96;;;;;;;;;;342688;154;857821;-60
2021/07/27 03:46:23;;;;;;;14.14;8.65;;;;;;;;;;349863;153;859179;-60
2021/07/27 03:47:25;;;;;;;15.14;8.74;;;;;;;;;;345638;154;856620;-59
2021/07/27 03:48:27;;;;;;;15.81;8.83;;;;;;;;;;348345;154;859632;-61
2021/07/27 03:49:29;;;;;;;18.64;8.86;;;;;;;;;;345071;154;859054;-60
2021/07/27 03:50:31;;;;;;;17.81;8.64;;;;;;;;;;343252;155;857211;-60
2021/07/27 03:51:33;;;;;;;18.11;8.93;;;;;;;;;;344866;155;860144;-61
2021/07/27 03:52:35;;;;;;;16.02;9.11;;;;;;;;;;343941;155;857409;-60
2021/07/27 03:53:36;;;;;;;15.81;8.66;;;;;;;;;;341445;155;857223;-62
2021/07/27 03:54:38;;;;;;;17.58;9.44;;;;;;;;;;343942;154;857320;-61
2021/07/27 03:55:39;;;;;;;14.89;9.16;;;;;;;;;;345170;154;865914;-62
2021/07/27 03:56:41;;;;;;;15.43;9.32;;;;;;;;;;344700;154;865516;-60
2021/07/27 03:57:43;;;;;;;16.15;9.16;;;;;;;;;;345609;153;859622;-60
2021/07/27 03:58:45;;;;;;;15.31;8.71;;;;;;;;;;345740;154;858596;-60
2021/07/27 03:59:47;;;;;;;15.65;9.35;;;;;;;;;;342662;157;858899;-61
2021/07/27 04:00:49;;;;;;;14.81;9.08;;;;;;;;;;341186;155;857857;-61
2021/07/27 04:01:50;;;;;;;13.67;8.96;;;;;;;;;;341398;155;857325;-61
2021/07/27 04:02:52;;;;;;;13.96;8.99;;;;;;;;;;342253;157;857449;-63
2021/07/27 04:03:53;;;;;;;13.28;8.59;;;;;;;;;;341264;156;857250;-61
2021/07/27 04:04:55;;;;;;;13.69;7.94;;;;;;;;;;349808;152;857245;-62
2021/07/27 04:05:56;;;;;;;14.15;8.11;;;;;;;;;;350854;153;857363;-60
2021/07/27 04:06:58;;;;;;;16.24;8.62;;;;;;;;;;348986;154;858834;-60
2021/07/27 04:08:00;;;;;;;12.19;8.37;;;;;;;;;;347503;152;866198;-60
2021/07/27 04:09:01;;;;;;;15.09;9.19;;;;;;;;;;346659;154;857371;-60
2021/07/27 04:10:04;;;;;;;17.67;8.77;;;;;;;;;;349327;153;859746;-59
2021/07/27 04:11:06;;;;;;;14.11;9.20;;;;;;;;;;344292;153;859570;-58
2021/07/27 04:12:08;;;;;;;19.35;9.99;;;;;;;;;;347599;153;864394;-60
2021/07/27 04:13:10;;;;;;;17.29;9.28;;;;;;;;;;345596;155;856212;-62
2021/07/27 04:14:11;;;;;;;15.46;9.46;;;;;;;;;;346881;153;864340;-60
2021/07/27 04:15:13;;;;;;;15.31;9.76;;;;;;;;;;344763;155;857058;-59
2021/07/27 04:16:16;;;;;;;14.21;9.46;;;;;;;;;;349436;153;856758;-62
2021/07/27 04:17:18;;;;;;;18.35;9.94;;;;;;;;;;351668;153;856957;-60
2021/07/27 04:18:20;;;;;;;22.80;9.64;;;;;;;;;;351663;153;857488;-62
2021/07/27 04:19:21;;;;;;;16.03;9.49;;;;;;;;;;350640;152;856605;-61
2021/07/27 04:20:24;;;;;;;21.44;9.52;;;;;;;;;;349212;153;856374;-62
2021/07/27 04:21:26;;;;;;;15.88;10.02;;;;;;;;;;347153;153;856356;-62
2021/07/27 04:24:13;;;;;;;20.96;9.14;;;;;;;22.79;58.37;100173.41;373042;142;881766;-64
2021/07/27 04:25:15;;;;;;;15.30;8.54;;;;;;;22.75;57.81;100172.70;362823;146;857296;-63
2021/07/27 04:26:18;;;;;;;16.71;8.73;;;;;;;22.82;56.75;100162.67;364840;144;857405;-64
2021/07/27 04:27:22;;;;;;;17.86;9.13;;;;;;;;;;364515;146;857519;-64
2021/07/27 04:28:24;;;;;;;18.24;9.08;;;;;;;;;;365834;144;865589;-64
2021/07/27 04:29:25;;;;;;;17.57;8.56;;;;;;;;;;362211;144;857434;-64
2021/07/27 04:30:28;;;;;;;17.03;8.71;;;;;;;;;;363824;144;857900;-64
2021/07/27 04:31:30;;;;;;;12.22;8.54;;;;;;;;;;363301;145;857874;-65
2021/07/27 04:32:31;;;;;;;20.92;8.98;;;;;;;;;;363075;145;865046;-64
2021/07/27 04:33:35;;;;;;;17.84;8.99;;;;;;;;;;362511;144;857257;-61
2021/07/27 04:34:36;;;;;;;14.28;8.47;;;;;;;;;;361061;144;857309;-63
2021/07/27 04:35:38;;;;;;;13.86;8.38;;;;;;;;;;362002;145;857428;-63
2021/07/27 04:36:41;;;;;;;14.45;7.66;;;;;;;;;;365028;145;857808;-63
2021/07/27 04:37:42;;;;;;;15.14;7.91;;;;;;;;;;360525;147;857281;-63
2021/07/27 04:38:44;;;;;;;14.01;8.58;;;;;;;;;;360839;144;857531;-62
2021/07/27 04:39:46;;;;;;;15.26;8.61;;;;;;;;;;362008;145;858998;-62
2021/07/27 04:40:49;;;;;;;14.90;8.25;;;;;;;;;;364864;144;859046;-63
2021/07/27 04:41:51;;;;;;;13.31;7.64;;;;;;;;;;360253;146;858065;-63
2021/07/27 04:42:52;;;;;;;12.95;7.99;;;;;;;;;;360101;145;858908;-63
2021/07/27 04:43:54;;;;;;;15.87;8.11;;;;;;;;;;356958;147;858904;-63
2021/07/27 04:44:55;;;;;;;13.64;7.86;;;;;;;;;;358191;147;857687;-65
2021/07/27 04:45:58;;;;;;;10.76;7.49;;;;;;;;;;358375;147;857390;-63
2021/07/27 04:47:00;;;;;;;12.43;7.92;;;;;;;;;;358154;147;857305;-63
2021/07/27 04:48:02;;;;;;;15.04;7.77;;;;;;;;;;358519;147;860453;-63
2021/07/27 04:49:04;;;;;;;20.35;7.97;;;;;;;;;;362560;147;858963;-64
2021/07/27 04:50:08;;;;;;;13.49;7.12;;;;;;;;;;357225;147;864888;-63
2021/07/27 04:51:09;;;;;;;13.22;7.58;;;;;;;;;;353933;147;857329;-64
2021/07/27 04:52:13;;;;;;;16.37;8.53;;;;;;;;;;353110;150;857280;-64
2021/07/27 04:53:20;;;;;;;12.72;7.93;;;;;;;;;;349431;151;858555;-64
2021/07/27 04:54:27;;;;;;;16.41;7.86;;;;;;;;;;358352;147;857278;-64
2021/07/27 04:55:21;;;;;;;11.88;7.78;;;;;;;;;;356904;147;857778;-64
2021/07/27 04:56:24;;;;;;;25.11;8.15;;;;;;;;;;356895;147;859518;-64
2021/07/27 04:57:25;;;;;;;17.50;7.61;;;;;;;;;;359121;147;858001;-63
2021/07/27 04:58:27;;;;;;;13.94;7.56;;;;;;;;;;357475;150;865016;-65
2021/07/27 04:59:32;;;;;;;13.81;7.71;;;;;;;;;;359628;147;857260;-65
2021/07/27 05:00:35;;;;;;;14.92;7.61;;;;;;;;;;358894;147;857344;-65
2021/07/27 05:01:39;;;;;;;15.63;7.22;;;;;;;;;;361615;148;857678;-65
2021/07/27 05:02:41;;;;;;;16.58;7.59;;;;;;;;;;359674;147;867247;-64
2021/07/27 05:03:43;;;;;;;12.64;7.03;;;;;;;;;;358839;148;857825;-64
2021/07/27 05:04:46;;;;;;;9.86;6.87;;;;;;;;;;361757;147;866769;-65
2021/07/27 05:05:47;;;;;;;11.25;6.95;;;;;;;;;;358984;147;858846;-65
2021/07/27 05:06:51;;;;;;;15.73;6.81;;;;;;;;;;359379;147;857198;-65
2021/07/27 05:07:52;;;;;;;9.64;7.29;;;;;;;;;;358239;147;859343;-65
2021/07/27 05:08:54;;;;;;;15.64;7.26;;;;;;;;;;362096;147;857325;-65
2021/07/27 05:09:56;;;;;;;13.35;6.72;;;;;;;;;;356915;147;857202;-65
2021/07/27 05:10:59;;;;;;;11.01;6.86;;;;;;;;;;358172;147;859150;-65
2021/07/27 05:12:01;;;;;;;13.33;6.84;;;;;;;;;;358604;147;859030;-66
2021/07/27 05:13:04;;;;;;;11.32;7.14;;;;;;;;;;359364;147;857686;-65
2021/07/27 05:14:06;;;;;;;10.46;7.83;;;;;;;;;;359433;147;860605;-65
2021/07/27 05:15:08;;;;;;;10.93;6.35;;;;;;;;;;356930;147;857493;-65
2021/07/27 05:16:13;;;;;;;11.65;6.77;;;;;;;;;;358449;147;857485;-65
2021/07/27 05:17:14;;;;;;;12.75;7.29;;;;;;;;;;360909;147;857591;-65
2021/07/27 05:18:16;;;;;;;10.68;6.56;;;;;;;;;;359233;147;865856;-65
2021/07/27 05:19:19;;;;;;;10.09;7.36;;;;;;;;;;357264;147;857267;-66
2021/07/27 05:20:22;;;;;;;11.35;7.39;;;;;;;;;;358216;147;857400;-66
2021/07/27 05:21:24;;;;;;;13.07;6.82;;;;;;;;;;357815;147;866804;-65
2021/07/27 05:22:25;;;;;;;8.57;6.66;;;;;;;;;;359807;147;865104;-66
2021/07/27 05:23:28;;;;;;;14.56;6.46;;;;;;;;;;359497;147;857360;-66
2021/07/27 05:24:29;;;;;;;13.09;7.23;;;;;;;;;;349429;153;857751;-66
2021/07/27 05:25:31;;;;;;;12.84;6.75;;;;;;;;;;354310;150;858661;-66
2021/07/27 05:26:33;;;;;;;11.36;7.71;;;;;;;;;;359424;150;857233;-66
2021/07/27 05:27:35;;;;;;;15.40;7.59;;;;;;;;;;359556;148;857900;-65
2021/07/27 05:28:37;;;;;;;13.49;8.94;;;;;;;;;;358668;147;857367;-66
2021/07/27 05:29:38;;;;;;;12.45;6.86;;;;;;;;;;359394;149;857304;-65
2021/07/27 05:30:42;;;;;;;13.72;6.85;;;;;;;;;;359027;148;857332;-67
2021/07/27 05:31:43;;;;;;;13.76;7.08;;;;;;;;;;359629;148;857402;-65
2021/07/27 05:32:45;;;;;;;23.37;7.57;;;;;;;;;;358583;149;865068;-66
2021/07/27 05:33:47;;;;;;;11.80;7.11;;;;;;;;;;359496;150;857334;-66
2021/07/27 05:34:48;;;;;;;10.52;7.08;;;;;;;;;;360057;148;859150;-66
2021/07/27 05:35:50;;;;;;;14.91;7.01;;;;;;;;;;359470;147;857325;-65
2021/07/27 05:36:53;;;;;;;12.24;7.64;;;;;;;;;;359170;150;859267;-65
2021/07/27 05:37:54;;;;;;;19.54;7.31;;;;;;;;;;359425;148;859108;-66
2021/07/27 05:38:56;;;;;;;14.54;6.65;;;;;;;;;;359177;148;858890;-66
2021/07/27 05:39:57;;;;;;;12.53;7.56;;;;;;;;;;359034;148;859145;-66
2021/07/27 05:41:01;;;;;;;9.96;7.14;;;;;;;;;;359202;150;859786;-66
2021/07/27 05:42:02;;;;;;;11.09;7.41;;;;;;;;;;359932;148;857356;-65
2021/07/27 05:43:04;;;;;;;15.12;7.79;;;;;;;;;;358916;147;857793;-66
2021/07/27 05:44:05;;;;;;;20.52;8.14;;;;;;;;;;358038;147;864990;-66
2021/07/27 05:45:08;;;;;;;9.40;7.34;;;;;;;;;;357406;148;857392;-66
2021/07/27 05:46:10;;;;;;;13.12;7.57;;;;;;;;;;359906;147;859032;-65
2021/07/27 05:47:11;;;;;;;13.47;7.66;;;;;;;;;;357069;150;857344;-65
2021/07/27 05:48:13;;;;;;;13.52;7.73;;;;;;;;;;357123;147;857277;-66
2021/07/27 05:49:15;;;;;;;16.31;7.64;;;;;;;;;;357093;147;857236;-65
2021/07/27 05:50:18;;;;;;;14.57;7.80;;;;;;;;;;360212;147;859037;-66
2021/07/27 05:51:21;;;;;;;13.99;7.95;;;;;;;;;;356702;150;865071;-65
2021/07/27 05:52:22;;;;;;;12.89;7.61;;;;;;;;;;354216;150;857397;-66
2021/07/27 05:53:24;;;;;;;22.69;8.26;;;;;;;;;;359241;148;857538;-66
2021/07/27 05:54:26;;;;;;;14.86;7.30;;;;;;;;;;357679;150;857540;-65
2021/07/27 05:55:27;;;;;;;18.21;8.23;;;;;;;;;;358057;148;857484;-65
2021/07/27 05:56:29;;;;;;;13.18;7.99;;;;;;;;;;359968;147;857262;-65
2021/07/27 05:57:31;;;;;;;13.90;8.22;;;;;;;;;;352001;150;857347;-64
2021/07/27 05:58:32;;;;;;;14.09;8.34;;;;;;;;;;351967;153;857200;-65
2021/07/27 05:59:34;;;;;;;15.54;8.09;;;;;;;;;;357850;147;857915;-65
2021/07/27 06:00:41;;;;;;;16.92;8.19;;;;;;;;;;356656;149;865983;-65
2021/07/27 06:01:43;;;;;;;17.93;9.30;;;;;;;;;;355280;150;857440;-66
2021/07/27 06:02:44;;;;;;;16.04;7.93;;;;;;;;;;358301;148;858037;-65
2021/07/27 06:03:46;;;;;;;16.51;8.67;;;;;;;;;;358169;148;859387;-65
2021/07/27 06:04:47;;;;;;;17.81;8.86;;;;;;;;;;357067;150;859445;-66
2021/07/27 06:05:52;;;;;;;12.56;7.81;;;;;;;;;;356605;148;858638;-65
2021/07/27 06:06:55;;;;;;;13.76;8.64;;;;;;;;;;358699;148;857234;-65
2021/07/27 06:07:57;;;;;;;23.15;8.89;;;;;;;;;;363986;147;859714;-65
2021/07/27 06:08:59;;;;;;;18.66;8.81;;;;;;;;;;359195;146;864968;-65
2021/07/27 06:10:01;;;;;;;29.36;10.29;;;;;;;;;;359241;148;858828;-66
2021/07/27 06:11:03;;;;;;;21.49;8.58;;;;;;;;;;358507;147;859015;-65
2021/07/27 06:12:07;;;;;;;16.81;8.42;;;;;;;;;;359637;147;866531;-66
2021/07/27 06:13:09;;;;;;;11.51;8.43;;;;;;;;;;359499;145;858302;-64
2021/07/27 06:14:10;;;;;;;19.71;8.36;;;;;;;;;;359392;147;859092;-65
2021/07/27 06:15:12;;;;;;;16.97;8.27;;;;;;;;;;364663;147;857279;-66
2021/07/27 06:16:15;;;;;;;15.50;8.35;;;;;;;;;;358407;147;857209;-65
2021/07/27 06:17:17;;;;;;;18.96;9.25;;;;;;;;;;357749;147;858625;-66
2021/07/27 06:18:18;;;;;;;28.81;9.36;;;;;;;;;;359625;147;864904;-66
2021/07/27 06:19:20;;;;;;;19.84;9.05;;;;;;;;;;357281;147;857403;-66
2021/07/27 06:20:22;;;;;;;12.49;8.51;;;;;;;;;;357174;147;857533;-65
2021/07/27 06:21:24;;;;;;;12.64;8.48;;;;;;;;;;358941;147;857464;-66
2021/07/27 06:22:25;;;;;;;65.50;12.03;;;;;;;;;;359433;147;857601;-65
2021/07/27 06:23:27;;;;;;;22.92;8.83;;;;;;;;;;358557;148;858830;-65
2021/07/27 06:24:28;;;;;;;22.81;9.24;;;;;;;;;;359100;147;860202;-65
2021/07/27 06:25:30;;;;;;;27.95;9.03;;;;;;;;;;358740;148;864798;-66
2021/07/27 06:26:33;;;;;;;39.73;11.13;;;;;;;;;;357191;150;864951;-65